sensor_id;sensor_type;location;lat;lon;timestamp;temperature;humidity
2387;DHT22;49473;50.772;8.768;2023-04-03T00:00:19;5.00;99.90
2387;DHT22;49473;50.772;8.768;2023-04-03T00:02:45;5.00;99.90
2387;DHT22;49473;50.772;8.768;2023-04-03T00:05:14;5.00;99.90
2387;DHT22;49473;50.772;8.768;2023-04-03T00:07:40;5.00;99.90
2387;DHT22;49473;50.772;8.768;2023-04-03T00:10:08;5.00;99.90
2387;DHT22;49473;50.772;8.768;2023-04-03T00:12:35;5.00;99.90
2387;DHT22;49473;50.772;8.768;2023-04-03T00:15:02;5.00;99.90
2387;DHT22;49473;50.772;8.768;2023-04-03T00:17:29;4.90;99.90
2387;DHT22;49473;50.772;8.768;2023-04-03T00:19:56;4.90;99.90
2387;DHT22;49473;50.772;8.768;2023-04-03T00:22:24;4.90;99.90
2387;DHT22;49473;50.772;8.768;2023-04-03T00:24:52;4.90;99.90
2387;DHT22;49473;50.772;8.768;2023-04-03T00:27:18;4.90;99.90
2387;DHT22;49473;50.772;8.768;2023-04-03T00:29:45;4.90;99.90
2387;DHT22;49473;50.772;8.768;2023-04-03T00:32:12;4.90;99.90
2387;DHT22;49473;50.772;8.768;2023-04-03T00:34:39;4.90;99.90
2387;DHT22;49473;50.772;8.768;2023-04-03T00:37:05;4.90;99.90
2387;DHT22;49473;50.772;8.768;2023-04-03T00:39:33;4.90;99.90
2387;DHT22;49473;50.772;8.768;2023-04-03T00:42:00;4.90;99.90
2387;DHT22;49473;50.772;8.768;2023-04-03T00:47:30;4.80;99.90
2387;DHT22;49473;50.772;8.768;2023-04-03T00:49:57;4.70;99.90
2387;DHT22;49473;50.772;8.768;2023-04-03T00:52:28;4.70;99.90
2387;DHT22;49473;50.772;8.768;2023-04-03T00:55:00;4.70;99.90
2387;DHT22;49473;50.772;8.768;2023-04-03T00:57:29;4.60;99.90
2387;DHT22;49473;50.772;8.768;2023-04-03T01:00:00;4.50;99.90
2387;DHT22;49473;50.772;8.768;2023-04-03T01:02:28;4.50;99.90
2387;DHT22;49473;50.772;8.768;2023-04-03T01:04:55;4.60;99.90
2387;DHT22;49473;50.772;8.768;2023-04-03T01:07:24;4.50;99.90
2387;DHT22;49473;50.772;8.768;2023-04-03T01:09:56;4.50;99.90
2387;DHT22;49473;50.772;8.768;2023-04-03T01:12:27;4.50;99.90
2387;DHT22;49473;50.772;8.768;2023-04-03T01:14:56;4.50;99.90
2387;DHT22;49473;50.772;8.768;2023-04-03T01:17:31;4.40;99.90
2387;DHT22;49473;50.772;8.768;2023-04-03T01:23:01;4.40;99.90
2387;DHT22;49473;50.772;8.768;2023-04-03T01:25:29;4.30;99.90
2387;DHT22;49473;50.772;8.768;2023-04-03T01:27:57;4.30;99.90
2387;DHT22;49473;50.772;8.768;2023-04-03T01:30:27;4.10;99.90
2387;DHT22;49473;50.772;8.768;2023-04-03T01:32:58;4.10;99.90
2387;DHT22;49473;50.772;8.768;2023-04-03T01:35:24;4.00;99.90
2387;DHT22;49473;50.772;8.768;2023-04-03T01:37:51;4.10;99.90
2387;DHT22;49473;50.772;8.768;2023-04-03T01:40:19;4.00;99.90
2387;DHT22;49473;50.772;8.768;2023-04-03T01:42:45;3.90;99.90
2387;DHT22;49473;50.772;8.768;2023-04-03T01:45:12;3.90;99.90
2387;DHT22;49473;50.772;8.768;2023-04-03T01:47:39;3.90;99.90
2387;DHT22;49473;50.772;8.768;2023-04-03T01:50:07;3.80;99.90
2387;DHT22;49473;50.772;8.768;2023-04-03T01:52:34;3.80;99.90
2387;DHT22;49473;50.772;8.768;2023-04-03T01:55:01;3.80;99.90
2387;DHT22;49473;50.772;8.768;2023-04-03T01:57:28;3.80;99.90
2387;DHT22;49473;50.772;8.768;2023-04-03T01:59:54;3.70;99.90
2387;DHT22;49473;50.772;8.768;2023-04-03T02:02:21;3.60;99.90
2387;DHT22;49473;50.772;8.768;2023-04-03T02:04:48;3.50;99.90
2387;DHT22;49473;50.772;8.768;2023-04-03T02:07:16;3.50;99.90
2387;DHT22;49473;50.772;8.768;2023-04-03T02:09:43;3.40;99.90
2387;DHT22;49473;50.772;8.768;2023-04-03T02:12:10;3.40;99.90
2387;DHT22;49473;50.772;8.768;2023-04-03T02:14:36;3.30;99.90
2387;DHT22;49473;50.772;8.768;2023-04-03T02:17:03;3.20;99.90
2387;DHT22;49473;50.772;8.768;2023-04-03T02:19:33;3.20;99.90
2387;DHT22;49473;50.772;8.768;2023-04-03T02:22:00;3.10;99.90
2387;DHT22;49473;50.772;8.768;2023-04-03T02:24:28;3.00;99.90
2387;DHT22;49473;50.772;8.768;2023-04-03T02:26:55;2.90;99.90
2387;DHT22;49473;50.772;8.768;2023-04-03T02:29:22;2.90;99.90
2387;DHT22;49473;50.772;8.768;2023-04-03T02:31:49;2.80;99.90
2387;DHT22;49473;50.772;8.768;2023-04-03T02:34:16;2.70;99.90
2387;DHT22;49473;50.772;8.768;2023-04-03T02:36:43;2.60;99.90
2387;DHT22;49473;50.772;8.768;2023-04-03T02:39:10;2.60;99.90
2387;DHT22;49473;50.772;8.768;2023-04-03T02:41:38;2.60;99.90
2387;DHT22;49473;50.772;8.768;2023-04-03T02:44:06;2.60;99.90
2387;DHT22;49473;50.772;8.768;2023-04-03T02:46:33;2.50;99.90
2387;DHT22;49473;50.772;8.768;2023-04-03T02:49:00;2.40;99.90
2387;DHT22;49473;50.772;8.768;2023-04-03T02:51:27;2.40;99.90
2387;DHT22;49473;50.772;8.768;2023-04-03T02:53:53;2.30;99.90
2387;DHT22;49473;50.772;8.768;2023-04-03T02:56:20;2.30;99.90
2387;DHT22;49473;50.772;8.768;2023-04-03T02:58:48;2.20;99.90
2387;DHT22;49473;50.772;8.768;2023-04-03T03:01:15;2.20;99.90
2387;DHT22;49473;50.772;8.768;2023-04-03T03:03:42;2.20;99.90
2387;DHT22;49473;50.772;8.768;2023-04-03T03:06:10;2.20;99.90
2387;DHT22;49473;50.772;8.768;2023-04-03T03:08:37;2.20;99.90
2387;DHT22;49473;50.772;8.768;2023-04-03T03:11:04;2.20;99.90
2387;DHT22;49473;50.772;8.768;2023-04-03T03:13:31;2.20;99.90
2387;DHT22;49473;50.772;8.768;2023-04-03T03:16:00;2.20;99.90
2387;DHT22;49473;50.772;8.768;2023-04-03T03:18:27;2.20;99.90
2387;DHT22;49473;50.772;8.768;2023-04-03T03:20:55;2.10;99.90
2387;DHT22;49473;50.772;8.768;2023-04-03T03:23:24;2.10;99.90
2387;DHT22;49473;50.772;8.768;2023-04-03T03:25:54;2.10;99.90
2387;DHT22;49473;50.772;8.768;2023-04-03T03:28:21;2.00;99.90
2387;DHT22;49473;50.772;8.768;2023-04-03T03:30:48;1.90;99.90
2387;DHT22;49473;50.772;8.768;2023-04-03T03:33:16;1.90;99.90
2387;DHT22;49473;50.772;8.768;2023-04-03T03:35:43;1.80;99.90
2387;DHT22;49473;50.772;8.768;2023-04-03T03:38:10;1.80;99.90
2387;DHT22;49473;50.772;8.768;2023-04-03T03:40:37;1.70;99.90
2387;DHT22;49473;50.772;8.768;2023-04-03T03:43:04;1.70;99.90
2387;DHT22;49473;50.772;8.768;2023-04-03T03:45:31;1.70;99.90
2387;DHT22;49473;50.772;8.768;2023-04-03T03:47:58;1.60;99.90
2387;DHT22;49473;50.772;8.768;2023-04-03T03:50:26;1.60;99.90
2387;DHT22;49473;50.772;8.768;2023-04-03T03:52:53;1.50;99.90
2387;DHT22;49473;50.772;8.768;2023-04-03T03:55:19;1.50;99.90
2387;DHT22;49473;50.772;8.768;2023-04-03T03:57:47;1.50;99.90
2387;DHT22;49473;50.772;8.768;2023-04-03T04:00:14;1.50;99.90
2387;DHT22;49473;50.772;8.768;2023-04-03T04:02:41;1.40;99.90
2387;DHT22;49473;50.772;8.768;2023-04-03T04:05:08;1.40;99.90
2387;DHT22;49473;50.772;8.768;2023-04-03T04:07:37;1.30;99.90
2387;DHT22;49473;50.772;8.768;2023-04-03T04:10:04;1.30;99.90
2387;DHT22;49473;50.772;8.768;2023-04-03T04:12:31;1.30;99.90
2387;DHT22;49473;50.772;8.768;2023-04-03T04:14:58;1.30;99.90
2387;DHT22;49473;50.772;8.768;2023-04-03T04:17:25;1.20;99.90
2387;DHT22;49473;50.772;8.768;2023-04-03T04:19:51;1.20;99.90
2387;DHT22;49473;50.772;8.768;2023-04-03T04:22:18;1.20;99.90
2387;DHT22;49473;50.772;8.768;2023-04-03T04:24:46;1.20;99.90
2387;DHT22;49473;50.772;8.768;2023-04-03T04:27:13;1.20;99.90
2387;DHT22;49473;50.772;8.768;2023-04-03T04:29:41;1.10;99.90
2387;DHT22;49473;50.772;8.768;2023-04-03T04:32:07;1.00;99.90
2387;DHT22;49473;50.772;8.768;2023-04-03T04:34:34;1.00;99.90
2387;DHT22;49473;50.772;8.768;2023-04-03T04:37:01;1.00;99.90
2387;DHT22;49473;50.772;8.768;2023-04-03T04:39:28;1.10;99.90
2387;DHT22;49473;50.772;8.768;2023-04-03T04:41:56;1.00;99.90
2387;DHT22;49473;50.772;8.768;2023-04-03T04:44:22;1.00;99.90
2387;DHT22;49473;50.772;8.768;2023-04-03T04:46:49;1.00;99.90
2387;DHT22;49473;50.772;8.768;2023-04-03T04:49:16;1.00;99.90
2387;DHT22;49473;50.772;8.768;2023-04-03T04:51:43;1.00;99.90
2387;DHT22;49473;50.772;8.768;2023-04-03T04:54:10;0.90;99.90
2387;DHT22;49473;50.772;8.768;2023-04-03T04:56:36;0.90;99.90
2387;DHT22;49473;50.772;8.768;2023-04-03T04:59:04;0.90;99.90
2387;DHT22;49473;50.772;8.768;2023-04-03T05:01:31;0.90;99.90
2387;DHT22;49473;50.772;8.768;2023-04-03T05:03:58;0.90;99.90
2387;DHT22;49473;50.772;8.768;2023-04-03T05:06:24;0.90;99.90
2387;DHT22;49473;50.772;8.768;2023-04-03T05:08:51;0.80;99.90
2387;DHT22;49473;50.772;8.768;2023-04-03T05:11:18;0.80;99.90
2387;DHT22;49473;50.772;8.768;2023-04-03T05:13:45;0.80;99.90
2387;DHT22;49473;50.772;8.768;2023-04-03T05:16:13;0.80;99.90
2387;DHT22;49473;50.772;8.768;2023-04-03T05:18:40;0.80;99.90
2387;DHT22;49473;50.772;8.768;2023-04-03T05:21:07;0.80;99.90
2387;DHT22;49473;50.772;8.768;2023-04-03T05:23:34;0.80;99.90
2387;DHT22;49473;50.772;8.768;2023-04-03T05:26:00;0.80;99.90
2387;DHT22;49473;50.772;8.768;2023-04-03T05:28:27;0.90;99.90
2387;DHT22;49473;50.772;8.768;2023-04-03T05:30:54;1.00;99.90
2387;DHT22;49473;50.772;8.768;2023-04-03T05:33:23;1.10;99.90
2387;DHT22;49473;50.772;8.768;2023-04-03T05:35:50;1.30;99.90
2387;DHT22;49473;50.772;8.768;2023-04-03T05:38:17;1.30;99.90
2387;DHT22;49473;50.772;8.768;2023-04-03T05:40:44;1.30;99.90
2387;DHT22;49473;50.772;8.768;2023-04-03T05:43:11;1.20;99.90
2387;DHT22;49473;50.772;8.768;2023-04-03T05:45:38;1.30;99.90
2387;DHT22;49473;50.772;8.768;2023-04-03T05:48:04;1.20;99.90
2387;DHT22;49473;50.772;8.768;2023-04-03T05:50:33;1.30;99.90
2387;DHT22;49473;50.772;8.768;2023-04-03T05:53:00;1.30;99.90
2387;DHT22;49473;50.772;8.768;2023-04-03T05:55:28;1.20;99.90
2387;DHT22;49473;50.772;8.768;2023-04-03T05:57:55;1.30;99.90
2387;DHT22;49473;50.772;8.768;2023-04-03T06:00:22;1.30;99.90
2387;DHT22;49473;50.772;8.768;2023-04-03T06:02:49;1.20;99.90
2387;DHT22;49473;50.772;8.768;2023-04-03T06:05:16;1.20;99.90
2387;DHT22;49473;50.772;8.768;2023-04-03T06:07:44;1.20;99.90
2387;DHT22;49473;50.772;8.768;2023-04-03T06:10:12;1.20;99.90
2387;DHT22;49473;50.772;8.768;2023-04-03T06:12:39;1.30;99.90
2387;DHT22;49473;50.772;8.768;2023-04-03T06:15:06;1.30;99.90
2387;DHT22;49473;50.772;8.768;2023-04-03T06:17:35;1.40;99.90
2387;DHT22;49473;50.772;8.768;2023-04-03T06:20:03;1.50;99.90
2387;DHT22;49473;50.772;8.768;2023-04-03T06:22:30;1.40;99.90
2387;DHT22;49473;50.772;8.768;2023-04-03T06:24:58;1.30;99.90
2387;DHT22;49473;50.772;8.768;2023-04-03T06:27:25;1.30;99.90
2387;DHT22;49473;50.772;8.768;2023-04-03T06:29:52;1.30;99.90
2387;DHT22;49473;50.772;8.768;2023-04-03T06:32:19;1.30;99.90
2387;DHT22;49473;50.772;8.768;2023-04-03T06:34:45;1.30;99.90
2387;DHT22;49473;50.772;8.768;2023-04-03T06:37:15;1.40;99.90
2387;DHT22;49473;50.772;8.768;2023-04-03T06:39:42;1.30;99.90
2387;DHT22;49473;50.772;8.768;2023-04-03T06:42:10;1.50;99.90
2387;DHT22;49473;50.772;8.768;2023-04-03T06:44:37;1.40;99.90
2387;DHT22;49473;50.772;8.768;2023-04-03T06:47:04;1.30;99.90
2387;DHT22;49473;50.772;8.768;2023-04-03T06:49:31;1.20;99.90
2387;DHT22;49473;50.772;8.768;2023-04-03T06:51:58;1.20;99.90
2387;DHT22;49473;50.772;8.768;2023-04-03T06:54:25;1.30;99.90
2387;DHT22;49473;50.772;8.768;2023-04-03T06:56:51;1.30;99.90
2387;DHT22;49473;50.772;8.768;2023-04-03T06:59:19;1.30;99.90
2387;DHT22;49473;50.772;8.768;2023-04-03T07:01:46;1.40;99.90
2387;DHT22;49473;50.772;8.768;2023-04-03T07:04:14;1.40;99.90
2387;DHT22;49473;50.772;8.768;2023-04-03T07:06:41;1.60;99.90
2387;DHT22;49473;50.772;8.768;2023-04-03T07:09:08;1.60;99.90
2387;DHT22;49473;50.772;8.768;2023-04-03T07:11:36;1.70;99.90
2387;DHT22;49473;50.772;8.768;2023-04-03T07:14:03;1.70;99.90
2387;DHT22;49473;50.772;8.768;2023-04-03T07:16:31;1.60;99.90
2387;DHT22;49473;50.772;8.768;2023-04-03T07:18:58;1.70;99.90
2387;DHT22;49473;50.772;8.768;2023-04-03T07:21:24;1.70;99.90
2387;DHT22;49473;50.772;8.768;2023-04-03T07:23:51;1.70;99.90
2387;DHT22;49473;50.772;8.768;2023-04-03T07:26:18;1.80;99.90
2387;DHT22;49473;50.772;8.768;2023-04-03T07:28:46;1.90;99.90
2387;DHT22;49473;50.772;8.768;2023-04-03T07:31:14;2.20;99.90
2387;DHT22;49473;50.772;8.768;2023-04-03T07:33:44;2.10;99.90
2387;DHT22;49473;50.772;8.768;2023-04-03T07:36:15;2.00;99.90
2387;DHT22;49473;50.772;8.768;2023-04-03T07:38:42;2.00;99.90
2387;DHT22;49473;50.772;8.768;2023-04-03T07:41:12;1.90;99.90
2387;DHT22;49473;50.772;8.768;2023-04-03T07:43:40;1.90;99.90
2387;DHT22;49473;50.772;8.768;2023-04-03T07:46:07;2.00;99.90
2387;DHT22;49473;50.772;8.768;2023-04-03T07:48:34;2.20;99.90
2387;DHT22;49473;50.772;8.768;2023-04-03T07:51:04;2.40;99.90
2387;DHT22;49473;50.772;8.768;2023-04-03T07:53:31;2.60;99.90
2387;DHT22;49473;50.772;8.768;2023-04-03T07:55:59;2.70;99.90
2387;DHT22;49473;50.772;8.768;2023-04-03T07:58:28;3.30;99.90
2387;DHT22;49473;50.772;8.768;2023-04-03T08:00:54;3.70;99.90
2387;DHT22;49473;50.772;8.768;2023-04-03T08:03:22;3.80;99.90
2387;DHT22;49473;50.772;8.768;2023-04-03T08:05:49;4.50;99.90
2387;DHT22;49473;50.772;8.768;2023-04-03T08:08:20;5.20;99.90
2387;DHT22;49473;50.772;8.768;2023-04-03T08:10:49;5.80;99.90
2387;DHT22;49473;50.772;8.768;2023-04-03T08:13:17;6.50;99.90
2387;DHT22;49473;50.772;8.768;2023-04-03T08:15:43;7.60;99.90
2387;DHT22;49473;50.772;8.768;2023-04-03T08:18:10;6.40;99.90
2387;DHT22;49473;50.772;8.768;2023-04-03T08:20:38;6.40;99.90
2387;DHT22;49473;50.772;8.768;2023-04-03T08:23:05;7.30;99.90
2387;DHT22;49473;50.772;8.768;2023-04-03T08:25:34;8.50;99.90
2387;DHT22;49473;50.772;8.768;2023-04-03T08:28:01;9.30;99.90
2387;DHT22;49473;50.772;8.768;2023-04-03T08:30:29;8.70;99.90
2387;DHT22;49473;50.772;8.768;2023-04-03T08:32:56;7.40;99.90
2387;DHT22;49473;50.772;8.768;2023-04-03T08:35:23;6.50;99.90
2387;DHT22;49473;50.772;8.768;2023-04-03T08:37:49;5.20;99.90
2387;DHT22;49473;50.772;8.768;2023-04-03T08:40:17;4.50;99.90
2387;DHT22;49473;50.772;8.768;2023-04-03T08:42:54;5.00;99.90
2387;DHT22;49473;50.772;8.768;2023-04-03T08:45:27;5.20;99.90
2387;DHT22;49473;50.772;8.768;2023-04-03T08:48:00;5.10;99.90
2387;DHT22;49473;50.772;8.768;2023-04-03T08:50:35;5.20;99.90
2387;DHT22;49473;50.772;8.768;2023-04-03T08:53:04;5.60;99.90
2387;DHT22;49473;50.772;8.768;2023-04-03T08:55:34;5.80;99.90
2387;DHT22;49473;50.772;8.768;2023-04-03T08:58:07;6.70;99.90
2387;DHT22;49473;50.772;8.768;2023-04-03T09:00:43;8.20;99.90
2387;DHT22;49473;50.772;8.768;2023-04-03T09:03:12;9.40;99.90
2387;DHT22;49473;50.772;8.768;2023-04-03T09:05:43;9.10;99.90
2387;DHT22;49473;50.772;8.768;2023-04-03T09:08:18;9.30;99.90
2387;DHT22;49473;50.772;8.768;2023-04-03T09:10:48;8.00;99.90
2387;DHT22;49473;50.772;8.768;2023-04-03T09:13:24;9.10;99.90
2387;DHT22;49473;50.772;8.768;2023-04-03T09:15:53;8.90;99.90
2387;DHT22;49473;50.772;8.768;2023-04-03T09:18:24;9.60;99.50
2387;DHT22;49473;50.772;8.768;2023-04-03T09:20:57;10.20;99.90
2387;DHT22;49473;50.772;8.768;2023-04-03T09:23:31;9.90;97.80
2387;DHT22;49473;50.772;8.768;2023-04-03T09:26:03;11.10;99.40
2387;DHT22;49473;50.772;8.768;2023-04-03T09:28:33;10.90;94.10
2387;DHT22;49473;50.772;8.768;2023-04-03T09:31:02;10.80;94.80
2387;DHT22;49473;50.772;8.768;2023-04-03T09:33:36;10.30;95.30
2387;DHT22;49473;50.772;8.768;2023-04-03T09:36:04;11.00;95.60
2387;DHT22;49473;50.772;8.768;2023-04-03T09:38:31;11.40;92.20
2387;DHT22;49473;50.772;8.768;2023-04-03T09:41:05;11.00;90.70
2387;DHT22;49473;50.772;8.768;2023-04-03T09:43:35;10.50;91.70
2387;DHT22;49473;50.772;8.768;2023-04-03T09:46:24;9.20;91.50
2387;DHT22;49473;50.772;8.768;2023-04-03T09:48:52;8.70;93.60
2387;DHT22;49473;50.772;8.768;2023-04-03T09:51:25;8.30;93.50
2387;DHT22;49473;50.772;8.768;2023-04-03T09:53:53;7.80;94.70
2387;DHT22;49473;50.772;8.768;2023-04-03T09:56:22;10.20;96.30
2387;DHT22;49473;50.772;8.768;2023-04-03T09:59:07;11.70;91.90
2387;DHT22;49473;50.772;8.768;2023-04-03T10:01:35;11.60;84.40
2387;DHT22;49473;50.772;8.768;2023-04-03T10:04:05;12.30;89.70
2387;DHT22;49473;50.772;8.768;2023-04-03T10:06:34;11.60;88.80
2387;DHT22;49473;50.772;8.768;2023-04-03T10:09:04;13.30;89.50
2387;DHT22;49473;50.772;8.768;2023-04-03T10:11:31;14.60;84.00
2387;DHT22;49473;50.772;8.768;2023-04-03T10:14:01;14.50;82.00
2387;DHT22;49473;50.772;8.768;2023-04-03T10:16:35;15.10;77.50
2387;DHT22;49473;50.772;8.768;2023-04-03T10:19:34;15.90;78.10
2387;DHT22;49473;50.772;8.768;2023-04-03T10:22:04;15.80;70.30
2387;DHT22;49473;50.772;8.768;2023-04-03T10:24:45;13.80;65.40
2387;DHT22;49473;50.772;8.768;2023-04-03T10:27:19;11.70;68.70
2387;DHT22;49473;50.772;8.768;2023-04-03T10:29:55;11.90;72.00
2387;DHT22;49473;50.772;8.768;2023-04-03T10:32:44;12.60;72.10
2387;DHT22;49473;50.772;8.768;2023-04-03T10:35:18;12.60;67.10
2387;DHT22;49473;50.772;8.768;2023-04-03T10:37:56;11.50;68.20
2387;DHT22;49473;50.772;8.768;2023-04-03T10:40:30;11.70;72.00
2387;DHT22;49473;50.772;8.768;2023-04-03T10:43:04;14.00;69.00
2387;DHT22;49473;50.772;8.768;2023-04-03T10:45:53;14.60;64.80
2387;DHT22;49473;50.772;8.768;2023-04-03T10:48:31;16.00;68.20
2387;DHT22;49473;50.772;8.768;2023-04-03T10:51:10;15.80;61.40
2387;DHT22;49473;50.772;8.768;2023-04-03T10:53:42;15.40;64.80
2387;DHT22;49473;50.772;8.768;2023-04-03T10:56:15;16.10;63.90
2387;DHT22;49473;50.772;8.768;2023-04-03T10:58:47;15.20;59.50
2387;DHT22;49473;50.772;8.768;2023-04-03T11:01:19;15.60;59.70
2387;DHT22;49473;50.772;8.768;2023-04-03T11:03:49;15.30;57.90
2387;DHT22;49473;50.772;8.768;2023-04-03T11:06:18;15.00;58.80
2387;DHT22;49473;50.772;8.768;2023-04-03T11:08:50;16.00;59.60
2387;DHT22;49473;50.772;8.768;2023-04-03T11:11:24;15.50;58.20
2387;DHT22;49473;50.772;8.768;2023-04-03T11:13:56;16.70;59.00
2387;DHT22;49473;50.772;8.768;2023-04-03T11:16:30;15.80;57.10
2387;DHT22;49473;50.772;8.768;2023-04-03T11:19:01;14.60;54.30
2387;DHT22;49473;50.772;8.768;2023-04-03T11:21:33;13.30;54.20
2387;DHT22;49473;50.772;8.768;2023-04-03T11:24:03;12.90;56.90
2387;DHT22;49473;50.772;8.768;2023-04-03T11:26:39;12.50;56.20
2387;DHT22;49473;50.772;8.768;2023-04-03T11:29:09;12.50;59.10
2387;DHT22;49473;50.772;8.768;2023-04-03T11:31:51;12.70;58.10
2387;DHT22;49473;50.772;8.768;2023-04-03T11:34:30;12.10;57.30
2387;DHT22;49473;50.772;8.768;2023-04-03T11:37:05;12.80;58.50
2387;DHT22;49473;50.772;8.768;2023-04-03T11:39:38;13.70;60.70
2387;DHT22;49473;50.772;8.768;2023-04-03T11:42:14;14.10;59.00
2387;DHT22;49473;50.772;8.768;2023-04-03T11:44:42;13.50;57.00
2387;DHT22;49473;50.772;8.768;2023-04-03T11:47:11;15.10;58.50
2387;DHT22;49473;50.772;8.768;2023-04-03T11:49:59;14.10;57.50
2387;DHT22;49473;50.772;8.768;2023-04-03T11:52:58;15.00;58.30
2387;DHT22;49473;50.772;8.768;2023-04-03T11:55:44;13.00;56.30
2387;DHT22;49473;50.772;8.768;2023-04-03T11:58:16;14.50;60.70
2387;DHT22;49473;50.772;8.768;2023-04-03T12:01:06;15.30;57.20
2387;DHT22;49473;50.772;8.768;2023-04-03T12:10:17;13.00;55.20
2387;DHT22;49473;50.772;8.768;2023-04-03T12:12:56;13.70;55.90
2387;DHT22;49473;50.772;8.768;2023-04-03T12:15:45;13.50;56.10
2387;DHT22;49473;50.772;8.768;2023-04-03T12:21:19;13.40;56.50
2387;DHT22;49473;50.772;8.768;2023-04-03T12:23:58;13.20;56.80
2387;DHT22;49473;50.772;8.768;2023-04-03T12:26:31;13.20;57.50
2387;DHT22;49473;50.772;8.768;2023-04-03T12:28:59;14.60;60.40
2387;DHT22;49473;50.772;8.768;2023-04-03T12:31:39;16.50;58.60
2387;DHT22;49473;50.772;8.768;2023-04-03T12:34:16;17.70;56.40
2387;DHT22;49473;50.772;8.768;2023-04-03T12:36:57;16.00;53.40
2387;DHT22;49473;50.772;8.768;2023-04-03T12:42:51;14.40;54.60
2387;DHT22;49473;50.772;8.768;2023-04-03T12:45:23;15.70;57.90
2387;DHT22;49473;50.772;8.768;2023-04-03T12:47:52;15.60;54.90
2387;DHT22;49473;50.772;8.768;2023-04-03T12:50:23;15.60;54.70
2387;DHT22;49473;50.772;8.768;2023-04-03T12:52:54;15.50;53.70
2387;DHT22;49473;50.772;8.768;2023-04-03T12:55:23;14.90;56.90
2387;DHT22;49473;50.772;8.768;2023-04-03T12:57:51;16.00;55.70
2387;DHT22;49473;50.772;8.768;2023-04-03T13:00:30;17.40;56.60
2387;DHT22;49473;50.772;8.768;2023-04-03T13:02:59;16.90;52.10
2387;DHT22;49473;50.772;8.768;2023-04-03T13:05:26;16.00;54.10
2387;DHT22;49473;50.772;8.768;2023-04-03T13:07:58;15.30;53.30
2387;DHT22;49473;50.772;8.768;2023-04-03T13:10:25;14.70;53.20
2387;DHT22;49473;50.772;8.768;2023-04-03T13:12:54;14.80;55.80
2387;DHT22;49473;50.772;8.768;2023-04-03T13:15:24;15.80;54.70
2387;DHT22;49473;50.772;8.768;2023-04-03T13:17:52;17.30;56.60
2387;DHT22;49473;50.772;8.768;2023-04-03T13:20:23;18.30;53.90
2387;DHT22;49473;50.772;8.768;2023-04-03T13:22:55;17.40;50.70
2387;DHT22;49473;50.772;8.768;2023-04-03T13:25:25;16.90;51.10
2387;DHT22;49473;50.772;8.768;2023-04-03T13:27:54;16.20;52.50
2387;DHT22;49473;50.772;8.768;2023-04-03T13:30:27;15.40;51.10
2387;DHT22;49473;50.772;8.768;2023-04-03T13:32:54;14.60;52.30
2387;DHT22;49473;50.772;8.768;2023-04-03T13:35:30;14.90;53.60
2387;DHT22;49473;50.772;8.768;2023-04-03T13:37:59;14.60;53.30
2387;DHT22;49473;50.772;8.768;2023-04-03T13:40:27;15.20;53.30
2387;DHT22;49473;50.772;8.768;2023-04-03T13:43:05;15.60;53.20
2387;DHT22;49473;50.772;8.768;2023-04-03T13:45:33;15.40;53.30
2387;DHT22;49473;50.772;8.768;2023-04-03T13:48:16;13.20;52.90
2387;DHT22;49473;50.772;8.768;2023-04-03T13:51:01;12.40;56.60
2387;DHT22;49473;50.772;8.768;2023-04-03T13:53:30;11.70;56.20
2387;DHT22;49473;50.772;8.768;2023-04-03T13:56:05;10.80;58.10
2387;DHT22;49473;50.772;8.768;2023-04-03T13:58:34;10.40;59.40
2387;DHT22;49473;50.772;8.768;2023-04-03T14:01:08;11.20;61.60
2387;DHT22;49473;50.772;8.768;2023-04-03T14:03:41;12.60;59.90
2387;DHT22;49473;50.772;8.768;2023-04-03T14:06:10;13.10;60.50
2387;DHT22;49473;50.772;8.768;2023-04-03T14:08:38;12.60;58.30
2387;DHT22;49473;50.772;8.768;2023-04-03T14:11:05;11.30;58.30
2387;DHT22;49473;50.772;8.768;2023-04-03T14:13:34;10.30;62.00
2387;DHT22;49473;50.772;8.768;2023-04-03T14:16:01;9.40;65.10
2387;DHT22;49473;50.772;8.768;2023-04-03T14:18:27;8.80;64.00
2387;DHT22;49473;50.772;8.768;2023-04-03T14:20:54;8.50;64.40
2387;DHT22;49473;50.772;8.768;2023-04-03T14:23:21;8.30;67.60
2387;DHT22;49473;50.772;8.768;2023-04-03T14:25:48;8.00;66.00
2387;DHT22;49473;50.772;8.768;2023-04-03T14:28:18;7.80;67.90
2387;DHT22;49473;50.772;8.768;2023-04-03T14:30:48;7.60;68.80
2387;DHT22;49473;50.772;8.768;2023-04-03T14:33:18;7.50;68.00
2387;DHT22;49473;50.772;8.768;2023-04-03T14:35:46;7.30;67.50
2387;DHT22;49473;50.772;8.768;2023-04-03T14:38:21;7.10;66.70
2387;DHT22;49473;50.772;8.768;2023-04-03T14:40:49;7.00;67.60
2387;DHT22;49473;50.772;8.768;2023-04-03T14:43:16;7.10;67.40
2387;DHT22;49473;50.772;8.768;2023-04-03T14:45:43;7.20;67.90
2387;DHT22;49473;50.772;8.768;2023-04-03T14:48:17;7.40;67.70
2387;DHT22;49473;50.772;8.768;2023-04-03T14:50:45;7.60;70.20
2387;DHT22;49473;50.772;8.768;2023-04-03T14:53:12;7.50;69.60
2387;DHT22;49473;50.772;8.768;2023-04-03T14:55:40;7.30;69.80
2387;DHT22;49473;50.772;8.768;2023-04-03T14:58:11;7.30;70.70
2387;DHT22;49473;50.772;8.768;2023-04-03T15:00:39;7.50;70.80
2387;DHT22;49473;50.772;8.768;2023-04-03T15:03:05;8.00;70.40
2387;DHT22;49473;50.772;8.768;2023-04-03T15:05:35;8.50;68.30
2387;DHT22;49473;50.772;8.768;2023-04-03T15:08:02;8.90;68.80
2387;DHT22;49473;50.772;8.768;2023-04-03T15:10:30;8.90;65.20
2387;DHT22;49473;50.772;8.768;2023-04-03T15:12:58;8.50;64.10
2387;DHT22;49473;50.772;8.768;2023-04-03T15:15:29;7.70;63.10
2387;DHT22;49473;50.772;8.768;2023-04-03T15:17:56;7.40;65.80
2387;DHT22;49473;50.772;8.768;2023-04-03T15:20:26;7.40;68.30
2387;DHT22;49473;50.772;8.768;2023-04-03T15:22:54;7.50;70.80
2387;DHT22;49473;50.772;8.768;2023-04-03T15:25:22;7.80;73.50
2387;DHT22;49473;50.772;8.768;2023-04-03T15:27:49;8.10;73.80
2387;DHT22;49473;50.772;8.768;2023-04-03T15:30:18;8.30;75.60
2387;DHT22;49473;50.772;8.768;2023-04-03T15:32:45;8.50;75.50
2387;DHT22;49473;50.772;8.768;2023-04-03T15:35:12;8.30;73.10
2387;DHT22;49473;50.772;8.768;2023-04-03T15:37:39;7.90;72.50
2387;DHT22;49473;50.772;8.768;2023-04-03T15:40:09;7.50;72.40
2387;DHT22;49473;50.772;8.768;2023-04-03T15:42:36;7.00;73.10
2387;DHT22;49473;50.772;8.768;2023-04-03T15:45:03;6.80;74.20
2387;DHT22;49473;50.772;8.768;2023-04-03T15:47:30;6.80;74.90
2387;DHT22;49473;50.772;8.768;2023-04-03T15:49:57;6.90;75.60
2387;DHT22;49473;50.772;8.768;2023-04-03T15:52:24;7.10;78.70
2387;DHT22;49473;50.772;8.768;2023-04-03T15:54:51;7.20;78.10
2387;DHT22;49473;50.772;8.768;2023-04-03T15:57:19;7.20;79.70
2387;DHT22;49473;50.772;8.768;2023-04-03T15:59:45;7.20;76.60
2387;DHT22;49473;50.772;8.768;2023-04-03T16:02:13;7.00;75.90
2387;DHT22;49473;50.772;8.768;2023-04-03T16:04:40;6.60;75.80
2387;DHT22;49473;50.772;8.768;2023-04-03T16:07:07;6.60;78.50
2387;DHT22;49473;50.772;8.768;2023-04-03T16:09:34;6.60;76.40
2387;DHT22;49473;50.772;8.768;2023-04-03T16:12:02;6.70;81.20
2387;DHT22;49473;50.772;8.768;2023-04-03T16:14:30;6.80;79.00
2387;DHT22;49473;50.772;8.768;2023-04-03T16:16:57;6.90;78.90
2387;DHT22;49473;50.772;8.768;2023-04-03T16:19:24;7.00;77.80
2387;DHT22;49473;50.772;8.768;2023-04-03T16:21:51;6.90;78.10
2387;DHT22;49473;50.772;8.768;2023-04-03T16:24:19;6.80;77.00
2387;DHT22;49473;50.772;8.768;2023-04-03T16:26:45;6.60;76.30
2387;DHT22;49473;50.772;8.768;2023-04-03T16:29:12;6.50;77.20